sensor_id;sensor_type;location;lat;lon;timestamp;temperature;humidity
41928;DHT22;27616;51.420;6.788;2023-11-19T00:02:07;10.60;99.90
41928;DHT22;27616;51.420;6.788;2023-11-19T00:04:36;10.70;99.90
41928;DHT22;27616;51.420;6.788;2023-11-19T00:07:03;10.70;99.90
41928;DHT22;27616;51.420;6.788;2023-11-19T00:09:29;10.70;99.90
41928;DHT22;27616;51.420;6.788;2023-11-19T00:11:54;10.70;99.90
41928;DHT22;27616;51.420;6.788;2023-11-19T00:14:21;10.80;99.90
41928;DHT22;27616;51.420;6.788;2023-11-19T00:16:46;10.80;99.90
41928;DHT22;27616;51.420;6.788;2023-11-19T00:19:12;10.80;99.90
41928;DHT22;27616;51.420;6.788;2023-11-19T00:21:37;10.90;99.90
41928;DHT22;27616;51.420;6.788;2023-11-19T00:24:03;10.80;99.90
41928;DHT22;27616;51.420;6.788;2023-11-19T00:26:29;10.90;99.90
41928;DHT22;27616;51.420;6.788;2023-11-19T00:28:56;10.80;99.90
41928;DHT22;27616;51.420;6.788;2023-11-19T00:31:23;10.90;99.90
41928;DHT22;27616;51.420;6.788;2023-11-19T00:33:48;10.90;99.90
41928;DHT22;27616;51.420;6.788;2023-11-19T00:36:14;10.90;99.90
41928;DHT22;27616;51.420;6.788;2023-11-19T00:38:39;11.00;99.90
41928;DHT22;27616;51.420;6.788;2023-11-19T00:41:05;11.20;99.90
41928;DHT22;27616;51.420;6.788;2023-11-19T00:43:31;11.20;99.90
41928;DHT22;27616;51.420;6.788;2023-11-19T00:45:56;11.30;99.90
41928;DHT22;27616;51.420;6.788;2023-11-19T00:48:22;11.50;99.90
41928;DHT22;27616;51.420;6.788;2023-11-19T00:50:47;11.70;99.90
41928;DHT22;27616;51.420;6.788;2023-11-19T00:53:13;11.90;99.90
41928;DHT22;27616;51.420;6.788;2023-11-19T00:55:39;12.00;99.90
41928;DHT22;27616;51.420;6.788;2023-11-19T00:58:04;12.00;99.90
41928;DHT22;27616;51.420;6.788;2023-11-19T01:00:31;12.10;99.90
41928;DHT22;27616;51.420;6.788;2023-11-19T01:02:58;12.20;99.90
41928;DHT22;27616;51.420;6.788;2023-11-19T01:05:25;12.20;99.90
41928;DHT22;27616;51.420;6.788;2023-11-19T01:07:51;12.20;99.90
41928;DHT22;27616;51.420;6.788;2023-11-19T01:10:19;12.20;99.90
41928;DHT22;27616;51.420;6.788;2023-11-19T01:12:44;12.20;99.90
41928;DHT22;27616;51.420;6.788;2023-11-19T01:15:10;12.20;99.90
41928;DHT22;27616;51.420;6.788;2023-11-19T01:17:39;12.30;99.90
41928;DHT22;27616;51.420;6.788;2023-11-19T01:20:05;12.30;99.90
41928;DHT22;27616;51.420;6.788;2023-11-19T01:22:32;12.30;99.90
41928;DHT22;27616;51.420;6.788;2023-11-19T01:24:58;12.30;99.90
41928;DHT22;27616;51.420;6.788;2023-11-19T01:27:24;12.30;99.90
41928;DHT22;27616;51.420;6.788;2023-11-19T01:29:50;12.40;99.90
41928;DHT22;27616;51.420;6.788;2023-11-19T01:32:16;12.40;99.90
41928;DHT22;27616;51.420;6.788;2023-11-19T01:34:41;12.40;99.90
41928;DHT22;27616;51.420;6.788;2023-11-19T01:37:07;12.40;99.90
41928;DHT22;27616;51.420;6.788;2023-11-19T01:39:35;12.50;99.90
41928;DHT22;27616;51.420;6.788;2023-11-19T01:42:01;12.50;99.90
41928;DHT22;27616;51.420;6.788;2023-11-19T01:44:27;12.50;99.90
41928;DHT22;27616;51.420;6.788;2023-11-19T01:46:52;12.50;99.90
41928;DHT22;27616;51.420;6.788;2023-11-19T01:49:19;12.50;99.90
41928;DHT22;27616;51.420;6.788;2023-11-19T01:51:45;12.60;99.90
41928;DHT22;27616;51.420;6.788;2023-11-19T01:54:12;12.60;99.90
41928;DHT22;27616;51.420;6.788;2023-11-19T01:56:39;12.60;99.90
41928;DHT22;27616;51.420;6.788;2023-11-19T01:59:07;12.50;99.90
41928;DHT22;27616;51.420;6.788;2023-11-19T02:01:33;12.60;99.90
41928;DHT22;27616;51.420;6.788;2023-11-19T02:04:03;12.60;99.90
41928;DHT22;27616;51.420;6.788;2023-11-19T02:06:30;12.60;99.90
41928;DHT22;27616;51.420;6.788;2023-11-19T02:08:57;12.60;99.90
41928;DHT22;27616;51.420;6.788;2023-11-19T02:11:23;12.60;99.90
41928;DHT22;27616;51.420;6.788;2023-11-19T02:13:49;12.60;99.90
41928;DHT22;27616;51.420;6.788;2023-11-19T02:16:15;12.70;99.90
41928;DHT22;27616;51.420;6.788;2023-11-19T02:18:40;12.70;99.90
41928;DHT22;27616;51.420;6.788;2023-11-19T02:21:06;12.70;99.90
41928;DHT22;27616;51.420;6.788;2023-11-19T02:23:32;12.70;99.90
41928;DHT22;27616;51.420;6.788;2023-11-19T02:28:45;12.70;99.90
41928;DHT22;27616;51.420;6.788;2023-11-19T02:31:11;12.60;99.90
41928;DHT22;27616;51.420;6.788;2023-11-19T02:33:40;12.60;99.90
41928;DHT22;27616;51.420;6.788;2023-11-19T02:36:07;12.70;99.90
41928;DHT22;27616;51.420;6.788;2023-11-19T02:38:36;12.70;99.90
41928;DHT22;27616;51.420;6.788;2023-11-19T02:41:06;12.80;99.90
41928;DHT22;27616;51.420;6.788;2023-11-19T02:43:33;12.80;99.90
41928;DHT22;27616;51.420;6.788;2023-11-19T02:46:02;12.80;99.90
41928;DHT22;27616;51.420;6.788;2023-11-19T02:48:30;12.80;99.90
41928;DHT22;27616;51.420;6.788;2023-11-19T02:50:56;12.80;99.90
41928;DHT22;27616;51.420;6.788;2023-11-19T02:53:24;12.80;99.90
41928;DHT22;27616;51.420;6.788;2023-11-19T02:55:53;12.70;99.90
41928;DHT22;27616;51.420;6.788;2023-11-19T02:58:18;12.70;99.90
41928;DHT22;27616;51.420;6.788;2023-11-19T03:00:49;12.80;99.90
41928;DHT22;27616;51.420;6.788;2023-11-19T03:03:23;12.80;99.90
41928;DHT22;27616;51.420;6.788;2023-11-19T03:05:54;12.80;99.90
41928;DHT22;27616;51.420;6.788;2023-11-19T03:08:20;12.80;99.90
41928;DHT22;27616;51.420;6.788;2023-11-19T03:10:46;12.80;99.90
41928;DHT22;27616;51.420;6.788;2023-11-19T03:13:13;12.80;99.90
41928;DHT22;27616;51.420;6.788;2023-11-19T03:15:42;12.90;99.90
41928;DHT22;27616;51.420;6.788;2023-11-19T03:18:09;12.80;99.90
41928;DHT22;27616;51.420;6.788;2023-11-19T03:20:34;12.80;99.90
41928;DHT22;27616;51.420;6.788;2023-11-19T03:23:00;12.80;99.90
41928;DHT22;27616;51.420;6.788;2023-11-19T03:25:27;12.80;99.90
41928;DHT22;27616;51.420;6.788;2023-11-19T03:27:58;12.80;99.90
41928;DHT22;27616;51.420;6.788;2023-11-19T03:30:24;12.70;99.90
41928;DHT22;27616;51.420;6.788;2023-11-19T03:32:50;12.70;99.90
41928;DHT22;27616;51.420;6.788;2023-11-19T03:35:16;12.70;99.90
41928;DHT22;27616;51.420;6.788;2023-11-19T03:37:41;12.70;99.90
41928;DHT22;27616;51.420;6.788;2023-11-19T03:40:08;12.70;99.90
41928;DHT22;27616;51.420;6.788;2023-11-19T03:42:33;12.70;99.90
41928;DHT22;27616;51.420;6.788;2023-11-19T03:44:59;12.70;99.90
41928;DHT22;27616;51.420;6.788;2023-11-19T03:47:25;12.70;99.90
41928;DHT22;27616;51.420;6.788;2023-11-19T03:49:51;12.60;99.90
41928;DHT22;27616;51.420;6.788;2023-11-19T03:52:18;12.60;99.90
41928;DHT22;27616;51.420;6.788;2023-11-19T03:54:44;12.50;99.90
41928;DHT22;27616;51.420;6.788;2023-11-19T03:57:11;12.50;99.90
41928;DHT22;27616;51.420;6.788;2023-11-19T03:59:37;12.50;99.90
41928;DHT22;27616;51.420;6.788;2023-11-19T04:02:03;12.50;99.90
41928;DHT22;27616;51.420;6.788;2023-11-19T04:04:29;12.40;99.90
41928;DHT22;27616;51.420;6.788;2023-11-19T04:06:57;12.40;99.90
41928;DHT22;27616;51.420;6.788;2023-11-19T04:09:23;12.40;99.90
41928;DHT22;27616;51.420;6.788;2023-11-19T04:11:49;12.40;99.90
41928;DHT22;27616;51.420;6.788;2023-11-19T04:14:15;12.40;99.90
41928;DHT22;27616;51.420;6.788;2023-11-19T04:16:44;12.40;99.90
41928;DHT22;27616;51.420;6.788;2023-11-19T04:19:10;12.40;99.90
41928;DHT22;27616;51.420;6.788;2023-11-19T04:21:36;12.40;99.90
41928;DHT22;27616;51.420;6.788;2023-11-19T04:24:02;12.50;99.90
41928;DHT22;27616;51.420;6.788;2023-11-19T04:26:27;12.50;99.90
41928;DHT22;27616;51.420;6.788;2023-11-19T04:28:56;12.50;99.90
41928;DHT22;27616;51.420;6.788;2023-11-19T04:31:22;12.50;99.90
41928;DHT22;27616;51.420;6.788;2023-11-19T04:33:47;12.50;99.90
41928;DHT22;27616;51.420;6.788;2023-11-19T04:36:13;12.50;99.90
41928;DHT22;27616;51.420;6.788;2023-11-19T04:38:39;12.50;99.90
41928;DHT22;27616;51.420;6.788;2023-11-19T04:41:06;12.50;99.90
41928;DHT22;27616;51.420;6.788;2023-11-19T04:43:34;12.50;99.90
41928;DHT22;27616;51.420;6.788;2023-11-19T04:46:03;12.50;99.90
41928;DHT22;27616;51.420;6.788;2023-11-19T04:48:29;12.40;99.90
41928;DHT22;27616;51.420;6.788;2023-11-19T04:50:55;12.40;99.90
41928;DHT22;27616;51.420;6.788;2023-11-19T04:53:20;12.30;99.90
41928;DHT22;27616;51.420;6.788;2023-11-19T04:55:46;12.30;99.90
41928;DHT22;27616;51.420;6.788;2023-11-19T04:58:11;12.30;99.90
41928;DHT22;27616;51.420;6.788;2023-11-19T05:00:37;12.40;99.90
41928;DHT22;27616;51.420;6.788;2023-11-19T05:03:03;12.40;99.90
41928;DHT22;27616;51.420;6.788;2023-11-19T05:05:28;12.40;99.90
41928;DHT22;27616;51.420;6.788;2023-11-19T05:07:54;12.40;99.90
41928;DHT22;27616;51.420;6.788;2023-11-19T05:10:20;12.40;99.90
41928;DHT22;27616;51.420;6.788;2023-11-19T05:12:46;12.40;99.90
41928;DHT22;27616;51.420;6.788;2023-11-19T05:15:12;12.40;99.90
41928;DHT22;27616;51.420;6.788;2023-11-19T05:17:38;12.40;99.90
41928;DHT22;27616;51.420;6.788;2023-11-19T05:20:04;12.40;99.90
41928;DHT22;27616;51.420;6.788;2023-11-19T05:22:30;12.40;99.90
41928;DHT22;27616;51.420;6.788;2023-11-19T05:24:56;12.40;99.90
41928;DHT22;27616;51.420;6.788;2023-11-19T05:27:21;12.40;99.90
41928;DHT22;27616;51.420;6.788;2023-11-19T05:29:49;12.50;99.90
41928;DHT22;27616;51.420;6.788;2023-11-19T05:32:14;12.50;99.90
41928;DHT22;27616;51.420;6.788;2023-11-19T05:34:40;12.50;99.90
41928;DHT22;27616;51.420;6.788;2023-11-19T05:37:06;12.50;99.90
41928;DHT22;27616;51.420;6.788;2023-11-19T05:39:31;12.50;99.90
41928;DHT22;27616;51.420;6.788;2023-11-19T05:41:57;12.50;99.90
41928;DHT22;27616;51.420;6.788;2023-11-19T05:44:23;12.60;99.90
41928;DHT22;27616;51.420;6.788;2023-11-19T05:46:48;12.50;99.90
41928;DHT22;27616;51.420;6.788;2023-11-19T05:49:14;12.50;99.90
41928;DHT22;27616;51.420;6.788;2023-11-19T05:51:40;12.60;99.90
41928;DHT22;27616;51.420;6.788;2023-11-19T05:54:07;12.50;99.90
41928;DHT22;27616;51.420;6.788;2023-11-19T05:56:33;12.50;99.90
41928;DHT22;27616;51.420;6.788;2023-11-19T05:58:59;12.50;99.90
41928;DHT22;27616;51.420;6.788;2023-11-19T06:01:26;12.50;99.90
41928;DHT22;27616;51.420;6.788;2023-11-19T06:03:52;12.50;99.90
41928;DHT22;27616;51.420;6.788;2023-11-19T06:06:18;12.50;99.90
41928;DHT22;27616;51.420;6.788;2023-11-19T06:08:44;12.50;99.90
41928;DHT22;27616;51.420;6.788;2023-11-19T06:11:10;12.40;99.90
41928;DHT22;27616;51.420;6.788;2023-11-19T06:13:40;12.40;99.90
41928;DHT22;27616;51.420;6.788;2023-11-19T06:16:06;12.40;99.90
41928;DHT22;27616;51.420;6.788;2023-11-19T06:18:32;12.40;99.90
41928;DHT22;27616;51.420;6.788;2023-11-19T06:20:57;12.30;99.90
41928;DHT22;27616;51.420;6.788;2023-11-19T06:23:23;12.30;99.90
41928;DHT22;27616;51.420;6.788;2023-11-19T06:25:49;12.40;99.90
41928;DHT22;27616;51.420;6.788;2023-11-19T06:28:14;12.30;99.90
41928;DHT22;27616;51.420;6.788;2023-11-19T06:30:40;12.30;99.90
41928;DHT22;27616;51.420;6.788;2023-11-19T06:33:07;12.20;99.90
41928;DHT22;27616;51.420;6.788;2023-11-19T06:35:33;12.20;99.90
41928;DHT22;27616;51.420;6.788;2023-11-19T06:38:02;12.20;99.90
41928;DHT22;27616;51.420;6.788;2023-11-19T06:40:30;12.20;99.90
41928;DHT22;27616;51.420;6.788;2023-11-19T06:42:56;12.20;99.90
41928;DHT22;27616;51.420;6.788;2023-11-19T06:45:22;12.10;99.90
41928;DHT22;27616;51.420;6.788;2023-11-19T06:47:47;12.10;99.90
41928;DHT22;27616;51.420;6.788;2023-11-19T06:50:13;12.10;99.90
41928;DHT22;27616;51.420;6.788;2023-11-19T06:52:40;12.10;99.90
41928;DHT22;27616;51.420;6.788;2023-11-19T06:55:06;12.10;99.90
41928;DHT22;27616;51.420;6.788;2023-11-19T06:57:32;12.00;99.90
41928;DHT22;27616;51.420;6.788;2023-11-19T06:59:58;11.90;99.90
41928;DHT22;27616;51.420;6.788;2023-11-19T07:02:24;12.00;99.90
41928;DHT22;27616;51.420;6.788;2023-11-19T07:04:50;11.90;99.90
41928;DHT22;27616;51.420;6.788;2023-11-19T07:07:16;11.90;99.90
41928;DHT22;27616;51.420;6.788;2023-11-19T07:09:42;11.90;99.90
41928;DHT22;27616;51.420;6.788;2023-11-19T07:12:08;11.90;99.90
41928;DHT22;27616;51.420;6.788;2023-11-19T07:14:34;11.90;99.90
41928;DHT22;27616;51.420;6.788;2023-11-19T07:16:59;11.90;99.90
41928;DHT22;27616;51.420;6.788;2023-11-19T07:19:26;12.00;99.90
41928;DHT22;27616;51.420;6.788;2023-11-19T07:21:51;12.00;99.90
41928;DHT22;27616;51.420;6.788;2023-11-19T07:24:20;11.90;99.90
41928;DHT22;27616;51.420;6.788;2023-11-19T07:26:47;11.90;99.90
41928;DHT22;27616;51.420;6.788;2023-11-19T07:29:14;12.00;99.90
41928;DHT22;27616;51.420;6.788;2023-11-19T07:31:40;11.90;99.90
41928;DHT22;27616;51.420;6.788;2023-11-19T07:34:06;11.90;99.90
41928;DHT22;27616;51.420;6.788;2023-11-19T07:36:32;11.90;99.90
41928;DHT22;27616;51.420;6.788;2023-11-19T07:38:58;11.90;99.90
41928;DHT22;27616;51.420;6.788;2023-11-19T07:41:24;11.90;99.90
41928;DHT22;27616;51.420;6.788;2023-11-19T07:43:51;11.90;99.90
41928;DHT22;27616;51.420;6.788;2023-11-19T07:46:17;11.90;99.90
41928;DHT22;27616;51.420;6.788;2023-11-19T07:48:45;12.00;99.90
41928;DHT22;27616;51.420;6.788;2023-11-19T07:51:12;12.00;99.90
41928;DHT22;27616;51.420;6.788;2023-11-19T07:53:39;12.00;99.90
41928;DHT22;27616;51.420;6.788;2023-11-19T07:56:05;12.00;99.90
41928;DHT22;27616;51.420;6.788;2023-11-19T07:58:31;12.00;99.90
41928;DHT22;27616;51.420;6.788;2023-11-19T08:00:56;12.00;99.90
41928;DHT22;27616;51.420;6.788;2023-11-19T08:03:22;12.10;99.90
41928;DHT22;27616;51.420;6.788;2023-11-19T08:05:48;12.10;99.90
41928;DHT22;27616;51.420;6.788;2023-11-19T08:08:13;12.20;99.90
41928;DHT22;27616;51.420;6.788;2023-11-19T08:10:40;12.20;99.90
41928;DHT22;27616;51.420;6.788;2023-11-19T08:13:06;12.20;99.90
41928;DHT22;27616;51.420;6.788;2023-11-19T08:15:33;12.20;99.90
41928;DHT22;27616;51.420;6.788;2023-11-19T08:17:58;12.10;99.90
41928;DHT22;27616;51.420;6.788;2023-11-19T08:20:24;12.20;99.90
41928;DHT22;27616;51.420;6.788;2023-11-19T08:22:50;12.30;99.90
41928;DHT22;27616;51.420;6.788;2023-11-19T08:25:15;12.40;99.90
41928;DHT22;27616;51.420;6.788;2023-11-19T08:27:41;12.40;99.90
41928;DHT22;27616;51.420;6.788;2023-11-19T08:30:08;12.40;99.90
41928;DHT22;27616;51.420;6.788;2023-11-19T08:32:34;12.40;99.90
41928;DHT22;27616;51.420;6.788;2023-11-19T08:35:01;12.40;99.90
41928;DHT22;27616;51.420;6.788;2023-11-19T08:37:26;12.50;99.90
41928;DHT22;27616;51.420;6.788;2023-11-19T08:39:52;12.50;99.90
41928;DHT22;27616;51.420;6.788;2023-11-19T08:42:19;12.60;99.90
41928;DHT22;27616;51.420;6.788;2023-11-19T08:44:48;12.70;99.90
41928;DHT22;27616;51.420;6.788;2023-11-19T08:47:16;12.70;99.90
41928;DHT22;27616;51.420;6.788;2023-11-19T08:49:43;12.80;99.90
41928;DHT22;27616;51.420;6.788;2023-11-19T08:52:09;12.80;99.90
41928;DHT22;27616;51.420;6.788;2023-11-19T08:54:36;12.90;99.90
41928;DHT22;27616;51.420;6.788;2023-11-19T08:57:03;12.90;99.90
41928;DHT22;27616;51.420;6.788;2023-11-19T08:59:29;13.00;99.90
41928;DHT22;27616;51.420;6.788;2023-11-19T09:01:55;13.10;99.90
41928;DHT22;27616;51.420;6.788;2023-11-19T09:04:21;13.10;99.90
41928;DHT22;27616;51.420;6.788;2023-11-19T09:06:48;13.10;99.90
41928;DHT22;27616;51.420;6.788;2023-11-19T09:09:14;13.20;99.90
41928;DHT22;27616;51.420;6.788;2023-11-19T09:11:40;13.30;99.90
41928;DHT22;27616;51.420;6.788;2023-11-19T09:14:06;13.40;99.90
41928;DHT22;27616;51.420;6.788;2023-11-19T09:16:32;13.60;99.90
41928;DHT22;27616;51.420;6.788;2023-11-19T09:18:58;13.70;99.90
41928;DHT22;27616;51.420;6.788;2023-11-19T09:21:25;13.70;99.90
41928;DHT22;27616;51.420;6.788;2023-11-19T09:23:50;13.70;99.90
41928;DHT22;27616;51.420;6.788;2023-11-19T09:26:16;13.60;99.90
41928;DHT22;27616;51.420;6.788;2023-11-19T09:28:42;13.50;99.90
41928;DHT22;27616;51.420;6.788;2023-11-19T09:31:17;13.60;99.90
41928;DHT22;27616;51.420;6.788;2023-11-19T09:33:44;13.80;99.90
41928;DHT22;27616;51.420;6.788;2023-11-19T09:36:12;14.00;99.90
41928;DHT22;27616;51.420;6.788;2023-11-19T09:38:47;14.20;99.90
41928;DHT22;27616;51.420;6.788;2023-11-19T09:41:13;14.20;99.90
41928;DHT22;27616;51.420;6.788;2023-11-19T09:43:40;14.30;99.90
41928;DHT22;27616;51.420;6.788;2023-11-19T09:46:08;14.50;99.90
41928;DHT22;27616;51.420;6.788;2023-11-19T09:48:37;15.00;99.90
41928;DHT22;27616;51.420;6.788;2023-11-19T09:51:05;15.10;99.90
41928;DHT22;27616;51.420;6.788;2023-11-19T09:53:31;14.80;99.90
41928;DHT22;27616;51.420;6.788;2023-11-19T09:55:58;14.50;99.90
41928;DHT22;27616;51.420;6.788;2023-11-19T09:58:26;14.10;99.90
41928;DHT22;27616;51.420;6.788;2023-11-19T10:00:51;13.90;99.90
41928;DHT22;27616;51.420;6.788;2023-11-19T10:03:17;13.70;99.90
41928;DHT22;27616;51.420;6.788;2023-11-19T10:05:43;13.60;99.90
41928;DHT22;27616;51.420;6.788;2023-11-19T10:08:08;13.60;99.90
41928;DHT22;27616;51.420;6.788;2023-11-19T10:10:36;13.60;99.90
41928;DHT22;27616;51.420;6.788;2023-11-19T10:13:03;13.50;99.90
41928;DHT22;27616;51.420;6.788;2023-11-19T10:15:35;13.40;99.90
41928;DHT22;27616;51.420;6.788;2023-11-19T10:18:02;13.40;99.90
41928;DHT22;27616;51.420;6.788;2023-11-19T10:20:28;13.40;99.90
41928;DHT22;27616;51.420;6.788;2023-11-19T10:22:55;13.40;99.90
41928;DHT22;27616;51.420;6.788;2023-11-19T10:25:28;13.50;99.90
41928;DHT22;27616;51.420;6.788;2023-11-19T10:27:57;13.50;99.90
41928;DHT22;27616;51.420;6.788;2023-11-19T10:30:24;13.50;99.90
41928;DHT22;27616;51.420;6.788;2023-11-19T10:35:51;13.80;99.90
41928;DHT22;27616;51.420;6.788;2023-11-19T10:38:20;14.00;99.90
41928;DHT22;27616;51.420;6.788;2023-11-19T10:40:48;14.00;99.90
41928;DHT22;27616;51.420;6.788;2023-11-19T10:43:14;13.90;99.90
41928;DHT22;27616;51.420;6.788;2023-11-19T10:45:40;13.90;99.90
41928;DHT22;27616;51.420;6.788;2023-11-19T10:48:06;13.90;99.90
41928;DHT22;27616;51.420;6.788;2023-11-19T10:50:36;14.20;99.90
41928;DHT22;27616;51.420;6.788;2023-11-19T10:53:03;14.60;99.90
41928;DHT22;27616;51.420;6.788;2023-11-19T10:55:31;14.80;99.90
41928;DHT22;27616;51.420;6.788;2023-11-19T10:58:02;14.80;99.90
41928;DHT22;27616;51.420;6.788;2023-11-19T11:00:30;14.80;99.90
41928;DHT22;27616;51.420;6.788;2023-11-19T11:03:02;14.80;99.90
41928;DHT22;27616;51.420;6.788;2023-11-19T11:05:32;15.00;99.90
41928;DHT22;27616;51.420;6.788;2023-11-19T11:08:01;15.10;99.90
41928;DHT22;27616;51.420;6.788;2023-11-19T11:10:28;14.90;99.90
41928;DHT22;27616;51.420;6.788;2023-11-19T11:12:59;14.90;99.90
41928;DHT22;27616;51.420;6.788;2023-11-19T11:15:27;15.10;99.90
41928;DHT22;27616;51.420;6.788;2023-11-19T11:18:00;15.40;99.90
41928;DHT22;27616;51.420;6.788;2023-11-19T11:20:32;15.40;99.90
41928;DHT22;27616;51.420;6.788;2023-11-19T11:37:46;16.20;99.90
41928;DHT22;27616;51.420;6.788;2023-11-19T11:40:15;16.60;99.90
41928;DHT22;27616;51.420;6.788;2023-11-19T11:42:41;16.50;99.90
41928;DHT22;27616;51.420;6.788;2023-11-19T11:45:09;16.10;99.90
41928;DHT22;27616;51.420;6.788;2023-11-19T11:50:22;15.60;99.90
41928;DHT22;27616;51.420;6.788;2023-11-19T11:55:35;15.70;99.90
41928;DHT22;27616;51.420;6.788;2023-11-19T11:58:02;15.90;99.90
41928;DHT22;27616;51.420;6.788;2023-11-19T12:00:39;16.00;99.90
41928;DHT22;27616;51.420;6.788;2023-11-19T12:03:06;16.10;99.90
41928;DHT22;27616;51.420;6.788;2023-11-19T12:05:33;16.40;99.90
41928;DHT22;27616;51.420;6.788;2023-11-19T12:08:03;16.20;99.90
41928;DHT22;27616;51.420;6.788;2023-11-19T12:10:31;15.90;99.90
41928;DHT22;27616;51.420;6.788;2023-11-19T12:13:01;16.10;99.90
41928;DHT22;27616;51.420;6.788;2023-11-19T12:15:27;16.50;99.90
41928;DHT22;27616;51.420;6.788;2023-11-19T12:17:56;17.00;99.90
41928;DHT22;27616;51.420;6.788;2023-11-19T12:20:23;16.80;99.90
41928;DHT22;27616;51.420;6.788;2023-11-19T12:22:50;16.30;99.90
41928;DHT22;27616;51.420;6.788;2023-11-19T12:25:17;16.20;99.90
41928;DHT22;27616;51.420;6.788;2023-11-19T12:27:47;16.60;99.90
41928;DHT22;27616;51.420;6.788;2023-11-19T12:30:23;16.40;99.90
41928;DHT22;27616;51.420;6.788;2023-11-19T12:32:54;15.90;99.90
41928;DHT22;27616;51.420;6.788;2023-11-19T12:35:20;15.50;99.90
41928;DHT22;27616;51.420;6.788;2023-11-19T12:37:47;15.10;99.90
41928;DHT22;27616;51.420;6.788;2023-11-19T12:40:21;14.70;99.90
41928;DHT22;27616;51.420;6.788;2023-11-19T12:42:48;14.40;99.90
41928;DHT22;27616;51.420;6.788;2023-11-19T12:45:14;14.20;99.90
41928;DHT22;27616;51.420;6.788;2023-11-19T12:47:42;14.10;99.90
41928;DHT22;27616;51.420;6.788;2023-11-19T12:50:09;13.90;99.90
41928;DHT22;27616;51.420;6.788;2023-11-19T12:52:38;13.80;99.90
41928;DHT22;27616;51.420;6.788;2023-11-19T12:55:04;13.70;99.90
41928;DHT22;27616;51.420;6.788;2023-11-19T12:57:38;13.60;99.90
41928;DHT22;27616;51.420;6.788;2023-11-19T13:00:05;13.50;99.90
41928;DHT22;27616;51.420;6.788;2023-11-19T13:02:48;13.50;99.90
41928;DHT22;27616;51.420;6.788;2023-11-19T13:05:30;13.40;99.90
41928;DHT22;27616;51.420;6.788;2023-11-19T13:08:10;13.30;99.90
41928;DHT22;27616;51.420;6.788;2023-11-19T13:10:51;13.50;99.90
41928;DHT22;27616;51.420;6.788;2023-11-19T13:13:17;13.90;99.90
41928;DHT22;27616;51.420;6.788;2023-11-19T13:15:43;14.50;99.90
41928;DHT22;27616;51.420;6.788;2023-11-19T13:18:12;14.80;99.90
41928;DHT22;27616;51.420;6.788;2023-11-19T13:20:38;14.70;99.90
41928;DHT22;27616;51.420;6.788;2023-11-19T13:23:05;14.40;99.90
41928;DHT22;27616;51.420;6.788;2023-11-19T13:25:32;14.30;99.90
41928;DHT22;27616;51.420;6.788;2023-11-19T13:27:58;14.50;99.90
41928;DHT22;27616;51.420;6.788;2023-11-19T13:30:24;14.40;99.90
41928;DHT22;27616;51.420;6.788;2023-11-19T13:32:51;14.10;99.90
41928;DHT22;27616;51.420;6.788;2023-11-19T13:35:18;14.00;99.90
41928;DHT22;27616;51.420;6.788;2023-11-19T13:37:44;14.10;99.90
41928;DHT22;27616;51.420;6.788;2023-11-19T13:40:11;14.10;99.90
41928;DHT22;27616;51.420;6.788;2023-11-19T13:42:41;14.20;99.90
41928;DHT22;27616;51.420;6.788;2023-11-19T13:45:14;14.10;99.90
41928;DHT22;27616;51.420;6.788;2023-11-19T13:47:41;13.90;99.90
41928;DHT22;27616;51.420;6.788;2023-11-19T13:50:15;13.80;99.90
41928;DHT22;27616;51.420;6.788;2023-11-19T13:52:43;13.80;99.90
41928;DHT22;27616;51.420;6.788;2023-11-19T13:55:10;13.70;99.90
41928;DHT22;27616;51.420;6.788;2023-11-19T13:57:37;13.60;99.90
41928;DHT22;27616;51.420;6.788;2023-11-19T14:00:04;13.60;99.90
41928;DHT22;27616;51.420;6.788;2023-11-19T14:02:34;13.50;99.90
41928;DHT22;27616;51.420;6.788;2023-11-19T14:05:00;13.50;99.90
41928;DHT22;27616;51.420;6.788;2023-11-19T14:07:26;13.40;99.90
41928;DHT22;27616;51.420;6.788;2023-11-19T14:09:51;13.40;99.90
41928;DHT22;27616;51.420;6.788;2023-11-19T14:12:17;13.30;99.90
41928;DHT22;27616;51.420;6.788;2023-11-19T14:14:43;13.20;99.90
41928;DHT22;27616;51.420;6.788;2023-11-19T14:17:09;13.10;99.90
41928;DHT22;27616;51.420;6.788;2023-11-19T14:19:36;12.90;99.90
41928;DHT22;27616;51.420;6.788;2023-11-19T14:22:02;12.70;99.90
41928;DHT22;27616;51.420;6.788;2023-11-19T14:24:28;12.70;99.90
41928;DHT22;27616;51.420;6.788;2023-11-19T14:26:53;12.60;99.90
41928;DHT22;27616;51.420;6.788;2023-11-19T14:29:19;12.70;99.90
41928;DHT22;27616;51.420;6.788;2023-11-19T14:31:44;12.70;99.90
41928;DHT22;27616;51.420;6.788;2023-11-19T14:34:10;12.80;99.90
41928;DHT22;27616;51.420;6.788;2023-11-19T14:36:36;12.70;99.90
41928;DHT22;27616;51.420;6.788;2023-11-19T14:39:01;12.70;99.90
41928;DHT22;27616;51.420;6.788;2023-11-19T14:41:27;12.70;99.90
41928;DHT22;27616;51.420;6.788;2023-11-19T14:43:52;12.70;99.90
41928;DHT22;27616;51.420;6.788;2023-11-19T14:46:18;12.70;99.90
41928;DHT22;27616;51.420;6.788;2023-11-19T14:48:44;12.80;99.90
41928;DHT22;27616;51.420;6.788;2023-11-19T14:51:10;12.70;99.90
41928;DHT22;27616;51.420;6.788;2023-11-19T14:53:35;12.60;99.90
41928;DHT22;27616;51.420;6.788;2023-11-19T14:56:01;12.60;99.90
41928;DHT22;27616;51.420;6.788;2023-11-19T14:58:27;12.50;99.90
41928;DHT22;27616;51.420;6.788;2023-11-19T15:00:53;12.50;99.90
41928;DHT22;27616;51.420;6.788;2023-11-19T15:03:19;12.50;99.90
41928;DHT22;27616;51.420;6.788;2023-11-19T15:05:45;12.40;99.90
41928;DHT22;27616;51.420;6.788;2023-11-19T15:08:14;12.40;99.90
41928;DHT22;27616;51.420;6.788;2023-11-19T15:10:42;12.40;99.90
41928;DHT22;27616;51.420;6.788;2023-11-19T15:13:10;12.30;99.90
41928;DHT22;27616;51.420;6.788;2023-11-19T15:15:36;12.30;99.90
41928;DHT22;27616;51.420;6.788;2023-11-19T15:18:01;12.20;99.90
41928;DHT22;27616;51.420;6.788;2023-11-19T15:20:27;12.20;99.90
41928;DHT22;27616;51.420;6.788;2023-11-19T15:22:57;12.10;99.90
41928;DHT22;27616;51.420;6.788;2023-11-19T15:25:23;12.00;99.90
41928;DHT22;27616;51.420;6.788;2023-11-19T15:27:49;12.00;99.90
41928;DHT22;27616;51.420;6.788;2023-11-19T15:30:15;12.00;99.90
41928;DHT22;27616;51.420;6.788;2023-11-19T15:32:42;12.00;99.90
41928;DHT22;27616;51.420;6.788;2023-11-19T15:35:11;11.90;99.90
41928;DHT22;27616;51.420;6.788;2023-11-19T15:37:37;11.90;99.90
41928;DHT22;27616;51.420;6.788;2023-11-19T15:40:06;11.90;99.90
41928;DHT22;27616;51.420;6.788;2023-11-19T15:42:34;11.80;99.90
41928;DHT22;27616;51.420;6.788;2023-11-19T15:45:00;11.80;99.90
41928;DHT22;27616;51.420;6.788;2023-11-19T15:47:26;11.80;99.90
41928;DHT22;27616;51.420;6.788;2023-11-19T15:49:51;11.80;99.90
41928;DHT22;27616;51.420;6.788;2023-11-19T15:52:17;11.80;99.90
41928;DHT22;27616;51.420;6.788;2023-11-19T15:54:42;11.90;99.90